Time;durP1;ratioP1;P1;durP2;ratioP2;P2;SDS_P1;SDS_P2;PMS_P1;PMS_P2;Temp;Humidity;BMP_temperature;BMP_pressure;BME280_temperature;BME280_humidity;BME280_pressure;Samples;Min_cycle;Max_cycle;Signal;HPM_P1;HPM_P2
2022/03/27 00:02:58;;;;;;;37.08;20.05;;;;;;;5.61;83.07;101083.19;4355617;22;10000708;-69
2022/03/27 00:05:24;;;;;;;31.27;20.85;;;;;;;5.50;83.38;101046.94;5017337;28;20050;-68
2022/03/27 00:07:49;;;;;;;36.35;23.80;;;;;;;5.45;82.81;101051.13;5045748;28;20057;-69
2022/03/27 00:10:14;;;;;;;36.45;23.33;;;;;;;5.35;84.17;101065.28;5051267;28;20037;-68
2022/03/27 00:12:40;;;;;;;34.53;21.33;;;;;;;5.64;84.37;101074.00;5047025;28;20029;-66
2022/03/27 00:15:06;;;;;;;42.72;25.95;;;;;;;5.24;86.87;101041.63;5030884;28;20033;-66
2022/03/27 00:17:34;;;;;;;40.83;24.92;;;;;;;5.69;87.95;101054.69;5030008;28;20029;-66
2022/03/27 00:20:02;;;;;;;43.38;26.13;;;;;;;4.88;92.96;101058.84;5031411;28;20033;-68
2022/03/27 00:22:27;;;;;;;39.60;23.38;;;;;;;5.81;90.06;101066.56;5031102;28;20414;-68
2022/03/27 00:24:52;;;;;;;30.00;20.60;;;;;;;5.40;90.69;101062.81;5030979;28;20040;-67
2022/03/27 00:27:18;;;;;;;29.65;20.50;;;;;;;4.95;92.51;101036.25;5031294;28;20026;-66
2022/03/27 00:29:43;;;;;;;28.55;20.20;;;;;;;5.22;94.25;101055.91;5030615;28;20021;-66
2022/03/27 00:32:09;;;;;;;30.88;20.50;;;;;;;4.94;96.94;101059.78;5031173;28;20026;-66
2022/03/27 00:34:34;;;;;;;31.35;20.83;;;;;;;4.62;99.17;101066.06;5029970;28;20541;-66
2022/03/27 00:37:00;;;;;;;33.22;20.58;;;;;;;5.16;96.29;101049.13;5030261;28;20026;-68
2022/03/27 00:39:25;;;;;;;29.00;19.92;;;;;;;4.65;96.81;101051.00;5046200;28;20051;-66
2022/03/27 00:41:51;;;;;;;31.15;18.25;;;;;;;4.88;97.62;101046.25;5050922;28;20128;-66
2022/03/27 00:44:17;;;;;;;26.52;18.48;;;;;;;4.71;98.81;101038.50;5050354;28;20037;-66
2022/03/27 00:46:43;;;;;;;26.13;18.00;;;;;;;4.80;98.47;101048.69;5050911;28;20032;-66
2022/03/27 00:49:09;;;;;;;30.95;19.88;;;;;;;5.15;97.44;101022.22;5050997;28;20116;-66
2022/03/27 00:51:34;;;;;;;33.05;21.05;;;;;;;5.49;95.14;101041.03;5050457;28;20215;-66
2022/03/27 00:54:00;;;;;;;33.25;21.10;;;;;;;4.53;97.26;101032.38;5050963;28;20033;-66
2022/03/27 00:56:25;;;;;;;32.97;22.13;;;;;;;4.98;97.36;101021.19;5049241;28;20446;-65
2022/03/27 00:58:51;;;;;;;35.15;22.85;;;;;;;4.65;99.73;101013.25;5048480;28;20546;-69
2022/03/27 01:01:24;;;;;;;30.25;21.00;;;;;;;4.80;100.00;101018.47;5042507;28;20028;-69
2022/03/27 01:03:53;;;;;;;32.65;22.00;;;;;;;5.27;99.66;101031.56;5042770;28;20096;-68
2022/03/27 01:06:35;;;;;;;32.60;22.17;;;;;;;4.49;100.00;101003.81;5030528;28;20521;-68
2022/03/27 01:11:47;;;;;;;28.02;19.25;;;;;;;5.16;100.00;101039.03;5030715;28;20585;-69
2022/03/27 01:14:13;;;;;;;29.73;19.30;;;;;;;5.53;97.70;101034.34;5030617;28;20025;-67
2022/03/27 01:16:40;;;;;;;29.70;19.58;;;;;;;4.88;100.00;101011.84;5030470;28;20033;-68
2022/03/27 01:19:08;;;;;;;28.23;18.85;;;;;;;5.18;100.00;101034.00;5029138;28;20033;-69
2022/03/27 01:21:36;;;;;;;24.67;18.60;;;;;;;5.11;98.32;101017.16;5030222;28;20033;-68
2022/03/27 01:24:02;;;;;;;31.75;18.63;;;;;;;4.98;100.00;101003.56;5030207;28;20095;-69
2022/03/27 01:26:29;;;;;;;29.00;18.55;;;;;;;5.17;100.00;101037.34;5030283;28;20029;-66
2022/03/27 01:28:55;;;;;;;26.75;17.60;;;;;;;4.77;100.00;101008.38;5030366;28;20022;-69
2022/03/27 01:31:20;;;;;;;24.55;17.83;;;;;;;5.33;100.00;101035.84;5030346;28;20484;-65
2022/03/27 01:33:46;;;;;;;24.20;17.08;;;;;;;5.44;100.00;101031.75;5029888;28;20033;-66
2022/03/27 01:36:20;;;;;;;22.75;17.13;;;;;;;5.31;100.00;101032.47;5030357;28;20494;-66
2022/03/27 01:38:45;;;;;;;26.08;17.80;;;;;;;5.48;100.00;101043.56;5029079;28;20116;-69
2022/03/27 01:41:11;;;;;;;26.25;18.10;;;;;;;4.88;100.00;101034.50;5029786;28;20129;-68
2022/03/27 01:43:36;;;;;;;27.20;18.33;;;;;;;5.47;100.00;101024.25;5030291;28;20021;-68
2022/03/27 01:46:02;;;;;;;27.17;17.75;;;;;;;4.87;100.00;100984.94;5030188;28;20079;-68
2022/03/27 01:48:28;;;;;;;26.88;18.45;;;;;;;5.26;100.00;101040.84;5030614;28;20022;-65
2022/03/27 01:50:59;;;;;;;24.80;17.60;;;;;;;4.89;100.00;101012.69;5032684;28;20041;-68
2022/03/27 01:53:25;;;;;;;24.10;16.70;;;;;;;5.16;100.00;101018.88;5034424;28;20116;-68
2022/03/27 01:55:51;;;;;;;21.90;17.17;;;;;;;4.79;100.00;101041.13;5033607;28;20179;-68
2022/03/27 01:58:16;;;;;;;27.40;17.65;;;;;;;5.10;100.00;101005.34;5034480;28;20036;-69
2022/03/27 02:00:45;;;;;;;28.63;17.30;;;;;;;4.94;100.00;101006.03;5032757;28;20037;-66
2022/03/27 02:03:11;;;;;;;28.15;16.95;;;;;;;4.55;100.00;101035.75;5032509;28;20414;-66
2022/03/27 02:05:36;;;;;;;22.95;17.10;;;;;;;4.37;100.00;101017.06;5033146;28;20033;-66
2022/03/27 02:08:02;;;;;;;22.30;16.33;;;;;;;4.82;100.00;101034.44;5034143;28;20041;-66
2022/03/27 02:10:28;;;;;;;24.15;17.70;;;;;;;4.81;100.00;101030.25;5032370;28;20025;-66
2022/03/27 02:12:53;;;;;;;25.25;17.17;;;;;;;4.75;100.00;101021.75;5034030;28;20037;-65
2022/03/27 02:15:19;;;;;;;27.02;18.02;;;;;;;4.75;100.00;101026.78;5032376;28;20033;-66
2022/03/27 02:17:45;;;;;;;28.23;18.25;;;;;;;4.06;100.00;101027.50;5032996;28;20216;-66
2022/03/27 02:20:11;;;;;;;27.92;18.38;;;;;;;4.31;100.00;101001.03;5033195;28;20044;-66
2022/03/27 02:22:37;;;;;;;27.67;20.35;;;;;;;4.55;100.00;101030.72;5037166;28;20112;-65
2022/03/27 02:25:03;;;;;;;27.90;19.38;;;;;;;4.54;100.00;100988.72;5037858;28;20112;-66
2022/03/27 02:27:28;;;;;;;26.88;19.88;;;;;;;4.39;100.00;101042.25;5032007;28;20041;-66
2022/03/27 02:29:54;;;;;;;34.80;21.60;;;;;;;4.66;100.00;101032.53;5033370;28;20451;-66
2022/03/27 02:32:19;;;;;;;34.80;21.02;;;;;;;4.54;100.00;101022.31;5031820;28;20071;-66
2022/03/27 02:34:45;;;;;;;32.63;21.77;;;;;;;4.43;100.00;101013.78;5033111;28;20079;-66
2022/03/27 02:37:10;;;;;;;32.42;21.50;;;;;;;3.96;100.00;101042.44;5033368;28;20483;-66
2022/03/27 02:39:36;;;;;;;36.13;21.65;;;;;;;4.13;100.00;101016.72;5031422;28;20030;-65
2022/03/27 02:42:01;;;;;;;31.80;21.10;;;;;;;4.16;100.00;101031.03;5044988;28;20483;-66
2022/03/27 02:44:26;;;;;;;28.98;20.00;;;;;;;4.85;100.00;101033.63;5068655;28;20037;-66
2022/03/27 02:46:52;;;;;;;29.30;20.38;;;;;;;4.12;100.00;101017.53;5035830;28;20025;-66
2022/03/27 02:49:17;;;;;;;28.92;20.70;;;;;;;3.68;100.00;101020.19;5032702;28;20562;-66
2022/03/27 02:51:47;;;;;;;39.38;28.42;;;;;;;4.16;100.00;101046.13;5032766;28;20037;-66
2022/03/27 02:54:13;;;;;;;43.35;28.92;;;;;;;4.37;100.00;101037.22;5032979;28;20036;-65
2022/03/27 02:56:39;;;;;;;48.03;31.15;;;;;;;4.01;100.00;101023.22;5032952;28;20388;-66
2022/03/27 02:59:05;;;;;;;47.22;32.13;;;;;;;3.84;100.00;101047.28;5034753;28;20044;-65
2022/03/27 03:01:31;;;;;;;42.47;30.52;;;;;;;4.06;100.00;101055.16;5067406;28;20471;-66
2022/03/27 03:03:57;;;;;;;43.83;30.40;;;;;;;4.18;100.00;101060.41;5036022;28;20053;-66
2022/03/27 03:06:26;;;;;;;36.60;24.25;;;;;;;3.98;100.00;101030.75;5032984;28;20423;-68
2022/03/27 03:08:53;;;;;;;35.45;23.70;;;;;;;3.53;100.00;101062.66;5032955;28;20026;-68
2022/03/27 03:11:20;;;;;;;32.80;22.88;;;;;;;4.13;100.00;101053.59;5048979;28;20072;-68
2022/03/27 03:13:51;;;;;;;30.73;22.05;;;;;;;4.01;100.00;101059.31;5052485;28;20036;-67
2022/03/27 03:16:17;;;;;;;33.97;23.20;;;;;;;3.66;100.00;101036.91;5052290;28;20071;-68
2022/03/27 03:18:44;;;;;;;33.95;22.65;;;;;;;3.65;100.00;101063.72;5052232;28;20491;-68
2022/03/27 03:21:09;;;;;;;31.25;22.20;;;;;;;3.66;100.00;101030.22;5052457;28;20029;-69
2022/03/27 03:23:36;;;;;;;31.58;21.58;;;;;;;3.50;100.00;101041.69;5052408;28;20031;-65
2022/03/27 03:26:04;;;;;;;28.85;22.17;;;;;;;4.13;100.00;101069.56;5052475;28;20079;-64
2022/03/27 03:28:29;;;;;;;30.75;22.00;;;;;;;3.37;100.00;101027.19;5051413;28;20037;-66
2022/03/27 03:30:55;;;;;;;30.77;22.95;;;;;;;3.16;100.00;101031.84;5051798;28;20040;-65
2022/03/27 03:33:20;;;;;;;32.50;23.10;;;;;;;3.98;100.00;101054.22;5067280;28;20028;-66
2022/03/27 03:35:46;;;;;;;33.47;23.25;;;;;;;3.26;100.00;101053.81;5037142;28;20037;-67
2022/03/27 03:38:11;;;;;;;36.20;22.73;;;;;;;3.80;100.00;101032.97;5031946;28;20064;-66
2022/03/27 03:40:37;;;;;;;30.30;22.67;;;;;;;3.79;100.00;101042.16;5032100;28;20053;-66
2022/03/27 03:43:03;;;;;;;31.48;22.65;;;;;;;3.47;100.00;101064.25;5032179;28;20100;-69
2022/03/27 03:45:29;;;;;;;32.13;23.48;;;;;;;2.93;100.00;101028.03;5032258;28;20493;-66
2022/03/27 03:47:54;;;;;;;32.72;23.15;;;;;;;4.15;100.00;101070.44;5031635;28;20041;-69
2022/03/27 03:50:20;;;;;;;34.30;23.27;;;;;;;3.14;100.00;101050.19;5031873;28;20035;-69
2022/03/27 03:52:45;;;;;;;31.67;22.83;;;;;;;3.40;100.00;101052.41;5031905;28;20030;-69
2022/03/27 03:55:11;;;;;;;37.58;23.60;;;;;;;3.14;100.00;101025.09;5031611;28;20103;-68
2022/03/27 03:57:36;;;;;;;34.92;22.27;;;;;;;3.92;100.00;101060.81;5032252;28;20025;-68
2022/03/27 04:00:02;;;;;;;33.50;22.65;;;;;;;3.49;100.00;101057.56;5030359;28;20029;-66
2022/03/27 04:02:28;;;;;;;33.65;23.08;;;;;;;3.57;100.00;101016.63;5029775;28;20050;-69
2022/03/27 04:04:53;;;;;;;34.50;22.40;;;;;;;3.81;100.00;101034.63;5034081;28;20525;-68
2022/03/27 04:07:19;;;;;;;39.30;26.90;;;;;;;4.05;100.00;101071.09;5051549;28;20120;-68
2022/03/27 04:09:44;;;;;;;52.90;35.08;;;;;;;3.60;100.00;101055.25;5051326;28;20116;-67
2022/03/27 04:12:11;;;;;;;44.08;29.85;;;;;;;3.29;100.00;101026.22;5050151;28;20391;-64
2022/03/27 04:14:36;;;;;;;31.98;23.75;;;;;;;3.39;100.00;101057.38;5051457;28;20039;-66
2022/03/27 04:17:03;;;;;;;31.63;22.65;;;;;;;3.39;100.00;101052.34;5050824;28;20410;-65
2022/03/27 04:19:29;;;;;;;28.88;21.73;;;;;;;3.41;100.00;101076.69;5066389;28;20021;-68
2022/03/27 04:21:55;;;;;;;35.40;26.33;;;;;;;3.35;100.00;101043.91;5051292;28;20029;-67
2022/03/27 04:24:21;;;;;;;33.90;25.30;;;;;;;3.42;100.00;101062.47;5050971;28;20032;-66
2022/03/27 04:26:46;;;;;;;33.10;24.33;;;;;;;3.53;100.00;101097.03;5051063;28;20041;-66
2022/03/27 04:29:11;;;;;;;34.58;23.42;;;;;;;3.37;100.00;101091.66;5051084;28;20025;-66
2022/03/27 04:31:41;;;;;;;29.63;22.17;;;;;;;3.65;100.00;101066.22;5050555;28;20115;-69
2022/03/27 04:34:08;;;;;;;34.92;22.30;;;;;;;3.69;100.00;101087.22;5051177;28;20025;-66
2022/03/27 04:36:33;;;;;;;33.88;22.75;;;;;;;3.75;100.00;101097.41;5051023;28;20029;-65
2022/03/27 04:38:59;;;;;;;33.60;22.58;;;;;;;3.57;100.00;101065.25;5050899;28;20025;-68
2022/03/27 04:41:24;;;;;;;33.65;22.70;;;;;;;4.18;100.00;101087.25;5049548;28;20083;-66
2022/03/27 04:43:50;;;;;;;31.42;22.58;;;;;;;3.61;100.00;101064.47;5050708;28;20088;-65
2022/03/27 04:46:16;;;;;;;30.38;22.73;;;;;;;4.09;100.00;101087.94;5065685;28;20033;-67
2022/03/27 04:48:42;;;;;;;29.33;22.85;;;;;;;4.42;100.00;101110.25;5066353;28;20410;-65
2022/03/27 04:51:08;;;;;;;30.40;22.15;;;;;;;3.68;100.00;101071.31;5044121;28;20138;-65
2022/03/27 04:53:33;;;;;;;32.70;23.13;;;;;;;4.01;100.00;101098.69;5030613;28;20525;-68
2022/03/27 04:55:59;;;;;;;31.10;22.27;;;;;;;4.31;100.00;101081.56;5030684;28;20036;-68
2022/03/27 04:58:24;;;;;;;32.28;22.85;;;;;;;4.15;100.00;101097.25;5030614;28;20036;-66
2022/03/27 05:00:49;;;;;;;29.77;21.88;;;;;;;4.68;100.00;101093.00;5030158;28;20029;-65
2022/03/27 05:03:15;;;;;;;33.58;22.20;;;;;;;4.60;100.00;101119.75;5030761;28;20092;-66
2022/03/27 05:05:41;;;;;;;33.40;22.98;;;;;;;4.83;100.00;101124.28;5030901;28;20411;-69
2022/03/27 05:08:07;;;;;;;32.58;23.55;;;;;;;4.80;100.00;101088.97;5030504;28;20090;-69
2022/03/27 05:10:33;;;;;;;36.38;23.50;;;;;;;5.02;100.00;101116.16;5030464;28;20034;-69
2022/03/27 05:12:58;;;;;;;52.83;25.17;;;;;;;4.79;100.00;101115.00;5030505;28;20026;-69
2022/03/27 05:15:24;;;;;;;32.70;23.92;;;;;;;5.00;100.00;101116.94;5030059;28;20545;-69
2022/03/27 05:17:55;;;;;;;35.65;24.42;;;;;;;5.09;100.00;101129.69;5030719;28;20491;-69
2022/03/27 05:20:21;;;;;;;32.33;20.77;;;;;;;5.06;100.00;101087.66;5030563;28;20029;-69
2022/03/27 05:22:47;;;;;;;44.60;28.23;;;;;;;5.11;100.00;101133.06;5029999;28;20029;-68
2022/03/27 05:25:15;;;;;;;45.85;32.03;;;;;;;5.23;100.00;101103.81;5030443;28;20040;-69
2022/03/27 05:27:53;;;;;;;50.35;33.50;;;;;;;5.11;100.00;101107.88;5030333;28;20502;-68
2022/03/27 05:30:21;;;;;;;65.03;36.40;;;;;;;5.28;100.00;101124.03;5030411;28;20092;-68
2022/03/27 05:32:47;;;;;;;55.10;35.40;;;;;;;5.46;100.00;101116.69;5030427;28;20037;-68
2022/03/27 05:35:14;;;;;;;51.28;33.78;;;;;;;5.05;100.00;101127.94;5028940;28;20044;-68
2022/03/27 05:37:41;;;;;;;58.15;36.75;;;;;;;4.96;100.00;101120.25;5030163;28;20033;-67
2022/03/27 05:40:09;;;;;;;55.75;37.80;;;;;;;5.64;100.00;101128.63;5030186;28;20033;-69
2022/03/27 05:42:35;;;;;;;59.83;39.03;;;;;;;4.87;100.00;101090.75;5029793;28;20025;-68
2022/03/27 05:45:05;;;;;;;48.58;37.47;;;;;;;5.46;100.00;101104.06;5030219;28;20080;-68
2022/03/27 05:47:31;;;;;;;59.30;42.85;;;;;;;5.23;100.00;101146.66;5030158;28;20045;-67
2022/03/27 05:49:56;;;;;;;66.45;45.78;;;;;;;5.94;100.00;101129.78;5029784;28;20033;-69
2022/03/27 05:52:23;;;;;;;60.90;45.60;;;;;;;6.66;95.28;101139.66;5028850;28;20029;-68
2022/03/27 05:54:49;;;;;;;72.80;45.92;;;;;;;6.23;97.75;101137.63;5029952;28;20033;-65
2022/03/27 05:57:16;;;;;;;58.90;45.72;;;;;;;6.13;96.11;101136.72;5029834;28;20083;-68
2022/03/27 05:59:42;;;;;;;65.95;45.55;;;;;;;6.71;96.14;101137.16;5045681;28;20419;-68
2022/03/27 06:02:07;;;;;;;56.80;41.05;;;;;;;7.54;88.92;101128.28;5049852;28;20068;-69
2022/03/27 06:04:33;;;;;;;50.65;37.72;;;;;;;6.93;86.79;101101.88;5049835;28;20021;-70
2022/03/27 06:06:58;;;;;;;45.83;35.75;;;;;;;6.63;89.96;101119.44;5049627;28;20032;-69
2022/03/27 06:09:23;;;;;;;47.40;35.47;;;;;;;7.76;87.31;101132.53;5018412;28;20029;-70
2022/03/27 06:11:49;;;;;;;55.58;36.80;;;;;;;6.93;84.88;101101.88;5010162;28;20061;-68
2022/03/27 06:14:14;;;;;;;45.33;32.88;;;;;;;6.77;89.57;101107.69;5010164;28;20030;-73
2022/03/27 06:16:40;;;;;;;46.47;31.73;;;;;;;7.83;88.38;101095.41;5010186;28;20033;-72
2022/03/27 06:19:06;;;;;;;44.75;32.22;;;;;;;6.64;91.17;101136.25;5010349;28;20022;-70
2022/03/27 06:21:31;;;;;;;48.67;35.15;;;;;;;6.66;95.14;101114.38;5010482;28;20045;-70
2022/03/27 06:23:56;;;;;;;41.55;31.23;;;;;;;7.16;98.20;101101.16;5010603;28;20045;-70
2022/03/27 06:26:22;;;;;;;40.45;29.98;;;;;;;7.93;94.98;101088.66;5010079;28;20030;-71
2022/03/27 06:28:47;;;;;;;47.35;32.03;;;;;;;8.27;88.16;101129.25;5010069;28;20034;-69
2022/03/27 06:31:13;;;;;;;30.38;23.17;;;;;;;7.71;93.09;101120.69;5009950;28;20033;-70
2022/03/27 06:33:39;;;;;;;27.45;21.42;;;;;;;7.65;96.80;101103.81;5009965;28;20434;-69
2022/03/27 06:36:05;;;;;;;30.65;22.42;;;;;;;9.49;88.77;101122.97;5011102;28;20476;-70
2022/03/27 06:38:30;;;;;;;27.90;21.08;;;;;;;8.67;92.43;101130.91;5013795;28;20058;-69
2022/03/27 06:40:56;;;;;;;30.27;20.58;;;;;;;9.69;85.43;101133.88;5013115;28;20435;-70
2022/03/27 06:43:22;;;;;;;29.70;20.10;;;;;;;9.31;82.50;101135.78;5011846;28;20026;-66
2022/03/27 06:45:49;;;;;;;24.20;19.13;;;;;;;9.60;84.62;101106.03;5013294;28;20026;-70
2022/03/27 06:48:14;;;;;;;32.40;20.40;;;;;;;10.22;93.99;101110.69;5012900;28;20026;-68
2022/03/27 06:50:40;;;;;;;27.95;19.73;;;;;;;11.18;86.08;101131.75;5043163;28;20091;-68
2022/03/27 06:53:07;;;;;;;33.50;20.15;;;;;;;11.41;80.50;101119.56;5049852;28;20033;-68
2022/03/27 06:55:33;;;;;;;26.65;19.60;;;;;;;10.39;77.08;101102.06;5050183;28;20036;-68
2022/03/27 06:57:58;;;;;;;31.02;21.73;;;;;;;10.91;71.55;101104.94;5049924;28;20036;-69
2022/03/27 07:03:09;;;;;;;26.35;19.95;;;;;;;10.50;69.82;101131.63;5052323;28;20059;-69
2022/03/27 07:05:44;;;;;;;27.23;20.50;;;;;;;11.06;70.25;101088.63;5051677;28;20486;-69
2022/03/27 07:08:15;;;;;;;27.42;21.27;;;;;;;11.02;72.26;101113.25;5052102;28;20479;-69
2022/03/27 07:10:42;;;;;;;27.63;19.58;;;;;;;10.28;73.14;101144.50;5051794;28;20112;-69
2022/03/27 07:13:09;;;;;;;25.75;20.50;;;;;;;11.41;70.98;101126.38;5052132;28;20540;-71
2022/03/27 07:15:38;;;;;;;27.48;20.17;;;;;;;11.57;69.15;101103.22;5051148;28;20090;-68
2022/03/27 07:18:05;;;;;;;29.00;21.67;;;;;;;11.85;68.34;101096.03;5051145;28;20025;-68
2022/03/27 07:20:32;;;;;;;28.77;20.23;;;;;;;11.83;68.83;101106.25;5051150;28;20071;-70
2022/03/27 07:23:00;;;;;;;26.80;19.17;;;;;;;12.00;68.29;101126.41;5051395;28;20064;-69
2022/03/27 07:25:27;;;;;;;27.95;19.10;;;;;;;12.36;67.07;101109.69;5051852;28;20068;-69
2022/03/27 07:27:53;;;;;;;22.88;18.85;;;;;;;11.93;65.49;101084.03;5067216;28;20033;-70
2022/03/27 07:30:18;;;;;;;22.67;18.95;;;;;;;11.93;64.09;101064.50;5051626;28;20418;-69
2022/03/27 07:32:44;;;;;;;24.55;18.17;;;;;;;12.56;65.36;101093.13;5052083;28;20403;-69
2022/03/27 07:35:12;;;;;;;23.88;18.50;;;;;;;11.98;65.73;101115.41;5052230;28;20187;-69
2022/03/27 07:37:39;;;;;;;23.77;18.25;;;;;;;12.08;65.42;101115.22;5051971;28;20029;-69
2022/03/27 07:40:08;;;;;;;21.10;17.80;;;;;;;13.27;62.10;101091.75;5052516;28;20032;-68
2022/03/27 07:42:38;;;;;;;23.27;18.00;;;;;;;12.57;62.68;101081.22;5052026;28;20116;-69
2022/03/27 07:45:04;;;;;;;25.52;18.55;;;;;;;13.28;62.20;101044.94;5051894;28;20032;-70
2022/03/27 07:47:31;;;;;;;20.02;16.70;;;;;;;13.68;57.84;101078.09;5051255;28;20060;-69
2022/03/27 07:49:56;;;;;;;22.90;18.00;;;;;;;14.11;57.73;101083.03;5051962;28;20565;-69
2022/03/27 07:52:22;;;;;;;22.42;17.35;;;;;;;13.97;57.17;101082.50;5051998;28;20029;-69
2022/03/27 07:54:51;;;;;;;29.23;20.27;;;;;;;14.28;59.27;101086.06;5051677;28;20494;-69
2022/03/27 07:57:17;;;;;;;31.75;23.27;;;;;;;14.94;57.07;101079.13;5051638;28;20036;-70
2022/03/27 07:59:42;;;;;;;23.65;19.48;;;;;;;14.56;57.41;101046.03;5051595;28;20036;-69
2022/03/27 08:02:08;;;;;;;22.00;17.98;;;;;;;14.78;55.49;101042.88;5051268;28;20139;-70
2022/03/27 08:04:34;;;;;;;22.20;17.40;;;;;;;14.45;56.45;101068.53;5050262;28;20465;-70
2022/03/27 08:07:00;;;;;;;25.30;18.15;;;;;;;13.35;55.81;101063.53;5051851;28;20025;-69
2022/03/27 08:09:25;;;;;;;22.40;17.75;;;;;;;13.86;56.16;101055.47;5051717;28;20418;-70
2022/03/27 08:11:52;;;;;;;20.95;17.48;;;;;;;15.08;55.83;101053.09;5051302;28;20029;-69
2022/03/27 08:14:17;;;;;;;24.73;17.20;;;;;;;15.38;52.90;101065.00;5051379;28;20514;-70
2022/03/27 08:16:43;;;;;;;22.90;17.73;;;;;;;15.93;54.47;101061.59;5051104;28;20052;-67
2022/03/27 08:19:08;;;;;;;24.10;20.38;;;;;;;15.33;53.27;101036.16;5051358;28;20033;-70
2022/03/27 08:21:34;;;;;;;24.58;18.33;;;;;;;15.78;52.26;101052.69;5051224;28;20414;-69
2022/03/27 08:23:59;;;;;;;22.40;17.85;;;;;;;16.49;51.89;101055.44;5051165;28;20082;-69
2022/03/27 08:29:09;;;;;;;22.73;16.20;;;;;;;16.82;52.46;101025.97;5050934;28;20122;-67
2022/03/27 08:31:34;;;;;;;22.17;15.82;;;;;;;17.17;51.48;101010.06;5050917;28;20479;-67
2022/03/27 08:34:00;;;;;;;27.02;17.45;;;;;;;17.07;52.42;101031.88;5051093;28;20112;-67
2022/03/27 08:36:27;;;;;;;24.63;19.13;;;;;;;16.81;53.21;101044.88;5051142;28;20035;-67
2022/03/27 08:38:53;;;;;;;24.88;20.10;;;;;;;17.31;51.57;101032.69;5051337;28;20025;-68
2022/03/27 08:41:19;;;;;;;24.30;16.88;;;;;;;17.43;51.81;101023.66;5050620;28;20479;-68
2022/03/27 08:43:46;;;;;;;20.73;16.60;;;;;;;17.56;52.37;101030.00;5050579;28;20033;-67
2022/03/27 08:46:12;;;;;;;20.35;14.80;;;;;;;18.15;51.76;101020.69;5050678;28;20113;-68
2022/03/27 08:48:39;;;;;;;19.75;14.57;;;;;;;17.20;51.30;101030.53;5049341;28;20029;-68
2022/03/27 08:51:25;;;;;;;17.70;14.75;;;;;;;17.18;51.30;100998.91;5050624;28;20029;-68
2022/03/27 08:53:53;;;;;;;18.52;14.02;;;;;;;17.57;50.86;101014.50;5050523;28;20047;-68
2022/03/27 08:56:19;;;;;;;18.13;14.68;;;;;;;17.59;50.76;101017.06;5050699;28;20036;-67
2022/03/27 08:58:44;;;;;;;17.00;13.82;;;;;;;18.62;47.90;100998.88;5050065;28;20379;-67
2022/03/27 09:01:11;;;;;;;19.25;13.82;;;;;;;18.64;48.04;100976.47;5050827;28;20037;-68
2022/03/27 09:03:37;;;;;;;18.48;13.70;;;;;;;19.56;48.39;100994.50;5050306;28;20045;-68
2022/03/27 09:06:05;;;;;;;19.98;13.65;;;;;;;19.23;48.21;100947.09;5050450;28;20020;-67
2022/03/27 09:08:30;;;;;;;18.63;13.10;;;;;;;19.11;48.29;100991.50;5050579;28;20553;-68
2022/03/27 09:10:56;;;;;;;18.00;12.07;;;;;;;18.84;46.85;100970.41;5050046;28;20033;-68
2022/03/27 09:13:23;;;;;;;18.50;12.43;;;;;;;19.63;46.80;100965.72;5050556;28;20025;-67
2022/03/27 09:16:17;;;;;;;19.27;12.23;;;;;;;20.18;46.32;100974.13;5050745;28;20067;-67
2022/03/27 09:18:55;;;;;;;16.38;12.15;;;;;;;18.71;46.21;100949.53;5036790;28;20079;-68
2022/03/27 09:21:22;;;;;;;20.00;11.68;;;;;;;19.15;47.18;100939.72;5050203;28;20033;-67
2022/03/27 09:23:53;;;;;;;14.48;11.77;;;;;;;20.28;45.73;100936.59;5050414;28;20067;-67
2022/03/27 09:26:18;;;;;;;20.05;10.88;;;;;;;20.18;43.96;100922.47;5050446;28;20037;-67
2022/03/27 09:28:57;;;;;;;17.75;11.48;;;;;;;20.62;43.18;100928.72;5050255;28;20438;-66
2022/03/27 09:31:27;;;;;;;16.08;11.65;;;;;;;20.78;44.60;100935.66;5050020;28;20033;-67
2022/03/27 09:34:01;;;;;;;15.55;11.10;;;;;;;21.05;43.24;100939.31;5048571;28;20071;-67
2022/03/27 09:36:32;;;;;;;21.88;10.73;;;;;;;21.93;42.44;100928.13;5050554;28;20029;-69
2022/03/27 09:39:16;;;;;;;16.08;11.50;;;;;;;22.53;39.99;100927.91;5050203;28;20021;-67
2022/03/27 09:41:49;;;;;;;18.63;13.50;;;;;;;21.66;36.44;100916.78;5050106;28;20037;-68
2022/03/27 09:44:20;;;;;;;19.00;12.23;;;;;;;21.90;34.69;100915.38;5065316;28;20127;-67
2022/03/27 09:46:48;;;;;;;13.13;10.43;;;;;;;22.29;35.70;100917.31;5050113;28;20557;-67
2022/03/27 09:49:19;;;;;;;15.35;9.73;;;;;;;21.65;36.32;100928.06;5050082;28;20124;-68
2022/03/27 09:52:05;;;;;;;19.97;10.83;;;;;;;22.59;34.94;100919.78;5050047;28;20455;-67
2022/03/27 09:54:47;;;;;;;24.17;12.70;;;;;;;22.08;33.98;100911.69;5050099;28;20029;-68
2022/03/27 09:57:22;;;;;;;20.27;9.73;;;;;;;22.15;33.16;100909.53;5050069;28;20029;-67
2022/03/27 09:59:48;;;;;;;14.52;8.85;;;;;;;22.47;32.75;100915.34;5048675;28;20028;-67
2022/03/27 10:02:23;;;;;;;10.88;8.32;;;;;;;21.99;32.89;100893.25;5049734;28;20124;-67
2022/03/27 10:04:53;;;;;;;9.55;7.75;;;;;;;22.16;33.49;100912.06;5048319;28;20422;-67
2022/03/27 10:07:19;;;;;;;12.77;7.63;;;;;;;21.55;33.27;100898.47;5048277;28;20400;-68
2022/03/27 10:09:44;;;;;;;11.35;7.60;;;;;;;23.33;32.93;100894.25;5051058;28;20039;-67
2022/03/27 10:12:12;;;;;;;9.27;7.30;;;;;;;22.58;33.03;100902.59;5053924;28;20436;-68
2022/03/27 10:14:39;;;;;;;13.18;9.23;;;;;;;23.79;32.74;100891.06;5053597;28;20033;-66
2022/03/27 10:17:07;;;;;;;13.32;10.52;;;;;;;23.99;30.83;100894.91;5053673;28;20033;-67
2022/03/27 10:19:38;;;;;;;14.82;10.65;;;;;;;23.27;29.61;100877.28;5053231;28;20028;-67
2022/03/27 10:22:06;;;;;;;15.18;11.88;;;;;;;23.62;26.68;100865.41;5053240;28;20415;-68
2022/03/27 10:24:32;;;;;;;14.35;10.23;;;;;;;23.24;27.30;100880.09;5052054;28;20044;-68
2022/03/27 10:27:02;;;;;;;11.85;8.80;;;;;;;23.44;25.94;100877.03;5053043;28;20041;-68
2022/03/27 10:29:29;;;;;;;9.60;7.85;;;;;;;24.11;25.97;100898.47;5053231;28;20143;-68
2022/03/27 10:31:56;;;;;;;16.20;10.93;;;;;;;24.45;26.01;100882.16;5053028;28;20064;-67
2022/03/27 10:34:22;;;;;;;13.30;9.35;;;;;;;24.07;26.62;100890.88;5053270;28;20029;-67
2022/03/27 10:36:56;;;;;;;15.63;9.93;;;;;;;24.16;26.12;100898.97;5053306;28;20029;-68
2022/03/27 10:39:25;;;;;;;18.60;11.30;;;;;;;24.46;26.51;100892.47;5052927;28;20049;-68
2022/03/27 10:42:12;;;;;;;15.68;9.10;;;;;;;23.63;26.92;100908.63;5053178;28;20032;-68
2022/03/27 10:44:47;;;;;;;14.05;9.45;;;;;;;24.32;25.67;100894.38;5052600;28;20033;-67
2022/03/27 10:47:23;;;;;;;12.93;8.43;;;;;;;23.94;26.26;100864.06;5053120;28;20028;-67
2022/03/27 10:50:01;;;;;;;13.27;9.30;;;;;;;25.31;25.97;100884.50;5051463;28;20033;-68
2022/03/27 10:52:30;;;;;;;9.90;8.15;;;;;;;25.62;25.02;100885.63;5052869;28;20029;-67
2022/03/27 10:55:11;;;;;;;11.07;8.45;;;;;;;25.54;25.81;100888.00;5052659;28;20124;-67
2022/03/27 10:57:42;;;;;;;13.63;9.68;;;;;;;25.03;25.64;100866.63;5053068;28;20120;-68
2022/03/27 11:00:09;;;;;;;13.45;9.35;;;;;;;24.50;26.02;100877.47;5052769;28;20091;-67
2022/03/27 11:03:01;;;;;;;14.40;10.90;;;;;;;24.92;25.40;100879.59;5052536;28;20045;-67
2022/03/27 11:05:30;;;;;;;14.45;9.07;;;;;;;24.81;25.44;100876.94;5049149;28;20056;-67
2022/03/27 11:08:18;;;;;;;14.48;9.73;;;;;;;24.21;25.13;100873.47;5023973;28;20041;-67
2022/03/27 11:10:51;;;;;;;12.13;9.90;;;;;;;25.59;25.17;100844.19;4973948;28;20500;-67
2022/03/27 11:13:30;;;;;;;13.63;9.80;;;;;;;25.00;25.10;100871.25;5012707;28;20474;-68
2022/03/27 11:16:08;;;;;;;15.75;9.77;;;;;;;26.22;25.04;100864.47;5012545;28;20032;-67
2022/03/27 11:18:43;;;;;;;13.23;9.38;;;;;;;25.16;25.62;100858.72;5012953;28;20037;-68
2022/03/27 11:21:13;;;;;;;15.38;10.25;;;;;;;25.06;26.61;100866.41;5012096;28;20034;-67
2022/03/27 11:23:41;;;;;;;15.60;10.20;;;;;;;25.53;25.56;100842.88;5012529;28;20510;-67